Time;durP1;ratioP1;P1;durP2;ratioP2;P2;SDS_P1;SDS_P2;PMS_P1;PMS_P2;Temp;Humidity;BMP_temperature;BMP_pressure;BME280_temperature;BME280_humidity;BME280_pressure;Samples;Min_cycle;Max_cycle;Signal;HPM_P1;HPM_P2
2022/07/10 00:00:24;;;;;;;;;;;;;;;15.14;67.00;100260.22;5118058;27;20069;-58
2022/07/10 00:02:49;;;;;;;7.78;2.05;;;;;;;15.13;67.15;100260.47;5117996;27;20011;-58
2022/07/10 00:05:15;;;;;;;8.60;2.65;;;;;;;14.96;67.56;100255.09;5101264;27;20496;-57
2022/07/10 00:07:40;;;;;;;9.55;2.38;;;;;;;14.96;67.45;100263.19;5120602;27;20023;-57
2022/07/10 00:10:06;;;;;;;5.47;2.65;;;;;;;14.99;67.98;100262.69;5118076;27;20088;-58
2022/07/10 00:12:31;;;;;;;7.15;2.30;;;;;;;14.93;68.38;100264.50;5121741;27;20472;-57
2022/07/10 00:14:57;;;;;;;6.30;2.30;;;;;;;14.93;68.25;100259.09;5120500;27;20031;-57
2022/07/10 00:17:22;;;;;;;7.55;2.20;;;;;;;14.88;68.07;100250.91;5110520;27;20035;-58
2022/07/10 00:19:48;;;;;;;7.00;2.60;;;;;;;14.82;67.67;100260.78;5119600;27;20050;-56
2022/07/10 00:22:16;;;;;;;6.15;2.35;;;;;;;14.79;67.46;100252.38;5121704;27;20022;-59
2022/07/10 00:24:42;;;;;;;10.73;2.30;;;;;;;14.82;67.92;100258.09;5107262;27;20030;-58
2022/07/10 00:27:07;;;;;;;6.38;2.40;;;;;;;14.78;67.97;100254.28;5117007;27;20028;-57
2022/07/10 00:29:33;;;;;;;9.98;2.47;;;;;;;14.76;67.83;100255.56;5125550;27;20022;-56
2022/07/10 00:31:58;;;;;;;10.20;2.53;;;;;;;14.73;68.15;100264.97;5118177;27;20031;-57
2022/07/10 00:34:23;;;;;;;7.30;2.40;;;;;;;14.82;68.37;100263.50;5125205;27;20152;-57
2022/07/10 00:36:49;;;;;;;7.25;2.60;;;;;;;14.83;69.03;100265.13;5123956;27;20065;-56
2022/07/10 00:39:14;;;;;;;5.35;2.13;;;;;;;14.72;68.54;100266.03;5119215;27;20107;-56
2022/07/10 00:41:40;;;;;;;8.55;2.55;;;;;;;14.58;68.86;100275.50;5097914;28;20024;-56
2022/07/10 00:44:05;;;;;;;6.00;2.25;;;;;;;14.59;69.82;100269.03;5125137;27;20027;-57
2022/07/10 00:46:31;;;;;;;7.85;2.50;;;;;;;14.53;70.02;100270.00;5117682;27;20371;-56
2022/07/10 00:48:56;;;;;;;6.35;2.47;;;;;;;14.36;70.51;100264.56;5117728;27;20338;-56
2022/07/10 00:51:27;;;;;;;7.22;2.30;;;;;;;14.25;69.06;100266.25;5117880;27;20458;-56
2022/07/10 00:53:52;;;;;;;;;;;;;;;14.21;68.90;100273.19;5097575;27;20412;-56
2022/07/10 00:56:22;;;;;;;7.43;2.30;;;;;;;14.03;69.21;100266.94;5125337;27;19930;-56
2022/07/10 00:58:48;;;;;;;;;;;;;;;14.07;69.28;100269.13;5102637;27;20057;-56
2022/07/10 01:01:14;;;;;;;5.35;2.15;;;;;;;13.91;70.30;100274.22;5121693;27;19998;-56
2022/07/10 01:03:39;;;;;;;10.70;2.50;;;;;;;13.83;71.11;100282.69;5102657;27;20396;-59
2022/07/10 01:06:06;;;;;;;6.10;2.17;;;;;;;13.75;71.63;100275.81;5117230;27;20051;-58
2022/07/10 01:08:32;;;;;;;8.45;2.35;;;;;;;13.79;71.46;100281.53;5124100;27;20019;-58
2022/07/10 01:10:57;;;;;;;9.95;2.50;;;;;;;13.71;71.52;100263.84;5123363;27;20058;-58
2022/07/10 01:13:23;;;;;;;5.38;2.00;;;;;;;13.54;72.47;100266.44;5098596;27;20019;-58
2022/07/10 01:15:48;;;;;;;8.27;2.00;;;;;;;13.53;72.95;100272.09;5116138;27;20392;-58
2022/07/10 01:18:14;;;;;;;13.07;2.38;;;;;;;13.40;72.04;100259.66;5097605;28;20031;-57
2022/07/10 01:20:39;;;;;;;7.90;2.50;;;;;;;13.36;72.76;100263.91;5117419;27;20023;-59
2022/07/10 01:23:05;;;;;;;6.82;2.47;;;;;;;13.26;72.99;100258.28;5123356;27;20016;-59
2022/07/10 01:25:30;;;;;;;8.13;2.00;;;;;;;13.22;73.02;100265.16;5118069;27;20481;-58
2022/07/10 01:27:56;;;;;;;7.82;2.30;;;;;;;13.17;73.07;100269.38;5127237;27;20454;-58
2022/07/10 01:30:21;;;;;;;9.63;2.20;;;;;;;13.14;73.29;100253.69;5123503;27;20473;-58
2022/07/10 01:32:47;;;;;;;8.98;2.60;;;;;;;13.08;73.62;100257.34;5104071;27;20067;-58
2022/07/10 01:35:12;;;;;;;9.85;2.30;;;;;;;13.03;73.83;100257.22;5121571;27;20036;-58
2022/07/10 01:37:38;;;;;;;5.90;2.10;;;;;;;13.00;74.19;100248.78;5120183;27;20035;-58
2022/07/10 01:40:05;;;;;;;9.63;2.20;;;;;;;13.03;74.04;100257.22;5100040;27;20023;-58
2022/07/10 01:42:30;;;;;;;9.07;2.10;;;;;;;12.91;74.49;100259.06;5118798;27;20069;-58
2022/07/10 01:44:56;;;;;;;6.05;2.17;;;;;;;12.86;74.98;100257.06;5128226;27;20078;-58
2022/07/10 01:47:24;;;;;;;8.00;2.30;;;;;;;12.78;74.81;100262.81;5094370;27;20030;-58
2022/07/10 01:49:51;;;;;;;10.18;2.45;;;;;;;12.78;75.10;100264.66;5120080;27;20076;-56
2022/07/10 01:52:16;;;;;;;7.28;2.00;;;;;;;12.71;75.78;100267.47;5123042;27;20027;-58
2022/07/10 01:54:41;;;;;;;7.65;2.17;;;;;;;12.71;75.82;100260.22;5124519;27;20028;-58
2022/07/10 01:57:07;;;;;;;9.80;2.42;;;;;;;12.70;76.29;100257.75;5122369;27;20031;-58
2022/07/10 01:59:32;;;;;;;7.72;2.47;;;;;;;12.66;76.30;100252.03;5120238;27;20118;-57
2022/07/10 02:01:58;;;;;;;8.93;2.95;;;;;;;12.58;76.62;100254.22;5123280;27;20047;-58
2022/07/10 02:04:41;;;;;;;5.80;2.22;;;;;;;12.57;77.25;100252.59;5103236;27;20028;-58
2022/07/10 02:07:10;;;;;;;7.28;2.55;;;;;;;12.40;77.81;100245.16;5113938;27;20281;-58
2022/07/10 02:09:36;;;;;;;11.02;2.28;;;;;;;12.46;77.58;100251.50;5121104;27;20026;-58
2022/07/10 02:12:01;;;;;;;17.52;3.53;;;;;;;12.52;77.71;100246.00;5097597;27;20389;-58
2022/07/10 02:14:27;;;;;;;9.75;3.15;;;;;;;12.63;78.46;100241.72;5122267;27;20424;-58
2022/07/10 02:16:52;;;;;;;9.43;2.90;;;;;;;12.43;77.94;100244.72;5121452;27;20470;-56
2022/07/10 02:19:18;;;;;;;11.02;2.33;;;;;;;12.17;79.07;100259.34;5114557;27;20030;-58
2022/07/10 02:21:43;;;;;;;8.68;2.50;;;;;;;12.16;79.28;100262.28;5115284;27;20027;-58
2022/07/10 02:24:09;;;;;;;9.13;2.85;;;;;;;12.19;79.04;100257.25;5116928;27;20019;-58
2022/07/10 02:26:34;;;;;;;6.40;2.50;;;;;;;12.20;79.48;100253.50;5119050;27;20034;-58
2022/07/10 02:28:59;;;;;;;13.70;2.95;;;;;;;12.17;79.52;100253.97;5118021;27;20054;-58
2022/07/10 02:31:25;;;;;;;8.05;2.58;;;;;;;12.04;79.67;100254.97;5115576;27;20369;-58
2022/07/10 02:33:50;;;;;;;11.23;3.15;;;;;;;11.99;81.13;100262.09;5117559;27;20023;-58
2022/07/10 02:36:16;;;;;;;7.30;2.78;;;;;;;11.96;80.77;100254.47;5117378;27;20032;-58
2022/07/10 02:38:41;;;;;;;8.25;2.45;;;;;;;11.90;81.54;100250.00;5104163;27;20026;-59
2022/07/10 02:41:07;;;;;;;13.68;2.72;;;;;;;12.01;81.03;100258.13;5116003;27;20108;-57
2022/07/10 02:43:32;;;;;;;9.57;2.83;;;;;;;11.91;80.67;100259.72;5115836;27;20031;-58
2022/07/10 02:45:58;;;;;;;4.43;2.40;;;;;;;11.71;81.40;100258.06;5121696;27;20028;-58
2022/07/10 02:48:23;;;;;;;7.32;2.45;;;;;;;11.70;81.54;100253.72;5122739;27;20031;-58
2022/07/10 02:50:49;;;;;;;8.52;2.70;;;;;;;11.89;81.43;100253.75;5110976;27;20024;-58
2022/07/10 02:53:14;;;;;;;7.22;2.58;;;;;;;11.71;81.42;100254.56;5119676;27;20024;-58
2022/07/10 02:55:39;;;;;;;10.15;2.92;;;;;;;11.60;81.77;100253.41;5113456;27;20084;-57
2022/07/10 02:58:05;;;;;;;10.25;2.70;;;;;;;11.63;82.40;100253.81;5120550;27;20069;-58
2022/07/10 03:00:30;;;;;;;8.27;2.92;;;;;;;11.72;81.43;100257.00;5115456;27;20024;-58
2022/07/10 03:02:56;;;;;;;8.05;2.50;;;;;;;11.62;81.91;100248.66;5121920;27;20323;-58
2022/07/10 03:05:22;;;;;;;7.75;2.78;;;;;;;11.65;81.83;100251.69;5114111;27;20031;-58
2022/07/10 03:07:47;;;;;;;6.38;2.58;;;;;;;11.72;81.55;100254.31;5120515;27;20047;-58
2022/07/10 03:10:12;;;;;;;8.35;2.75;;;;;;;11.60;82.03;100256.09;5116609;27;20031;-58
2022/07/10 03:12:38;;;;;;;10.10;2.83;;;;;;;11.66;81.90;100252.53;5116842;27;20448;-58
2022/07/10 03:15:05;;;;;;;10.10;2.50;;;;;;;11.51;82.24;100244.03;5113635;27;20027;-58
2022/07/10 03:17:31;;;;;;;17.80;3.30;;;;;;;11.50;82.59;100243.19;5119724;27;20015;-58
2022/07/10 03:19:56;;;;;;;7.55;2.67;;;;;;;11.42;82.88;100251.56;5120469;27;20034;-58
2022/07/10 03:22:22;;;;;;;8.77;2.80;;;;;;;11.50;82.60;100247.75;5117263;27;20035;-57
2022/07/10 03:24:47;;;;;;;14.10;3.15;;;;;;;11.49;83.31;100254.19;5099112;28;20028;-58
2022/07/10 03:27:13;;;;;;;10.77;2.95;;;;;;;11.50;83.42;100253.94;5116694;28;20031;-57
2022/07/10 03:29:39;;;;;;;5.78;2.47;;;;;;;11.35;83.76;100256.16;5117422;28;20110;-58
2022/07/10 03:32:05;;;;;;;7.82;2.50;;;;;;;11.29;84.37;100252.50;5122594;28;20349;-56
2022/07/10 03:34:30;;;;;;;8.88;2.40;;;;;;;11.19;85.17;100246.84;5116367;28;20497;-57
2022/07/10 03:36:56;;;;;;;10.57;2.83;;;;;;;11.23;85.08;100250.69;5118068;28;20438;-58
2022/07/10 03:39:21;;;;;;;10.18;2.58;;;;;;;11.29;84.57;100249.00;5121002;28;20023;-58
2022/07/10 03:41:47;;;;;;;9.82;2.97;;;;;;;11.18;85.01;100246.03;5119886;28;20043;-58
2022/07/10 03:44:12;;;;;;;9.02;3.22;;;;;;;11.19;85.21;100249.53;5120040;28;20465;-57
2022/07/10 03:46:37;;;;;;;10.80;2.67;;;;;;;11.15;85.69;100245.63;5120815;28;20461;-58
2022/07/10 03:49:03;;;;;;;8.52;2.83;;;;;;;11.11;85.74;100257.88;5114148;28;20469;-57
2022/07/10 03:51:28;;;;;;;7.28;2.63;;;;;;;11.20;85.58;100245.78;5122969;28;20530;-57
2022/07/10 03:53:54;;;;;;;9.70;2.90;;;;;;;11.26;85.33;100250.28;5113760;28;20027;-56
2022/07/10 03:59:03;;;;;;;7.78;2.92;;;;;;;11.23;85.58;100253.38;5103115;28;20401;-57
2022/07/10 04:01:28;;;;;;;8.38;2.50;;;;;;;11.26;85.58;100252.97;5115526;28;20031;-57
2022/07/10 04:03:54;;;;;;;9.55;3.00;;;;;;;11.33;85.59;100253.72;5121246;28;20461;-56
2022/07/10 04:06:19;;;;;;;8.48;2.53;;;;;;;11.56;85.00;100246.88;5120215;28;20370;-56
2022/07/10 04:08:45;;;;;;;8.63;3.03;;;;;;;11.48;84.52;100252.50;5095052;28;20028;-56
2022/07/10 04:11:10;;;;;;;10.65;3.10;;;;;;;11.31;85.34;100252.31;5116802;28;20027;-56
2022/07/10 04:13:36;;;;;;;6.50;2.47;;;;;;;11.30;85.35;100250.66;5096940;28;20466;-57
2022/07/10 04:16:03;;;;;;;8.30;2.53;;;;;;;11.37;85.75;100249.53;5118175;28;20084;-56
2022/07/10 04:18:28;;;;;;;10.18;2.65;;;;;;;11.52;84.97;100240.31;5073595;28;20032;-57
2022/07/10 04:20:53;;;;;;;7.07;2.67;;;;;;;11.73;84.13;100247.06;5120075;28;20504;-57
2022/07/10 04:23:19;;;;;;;11.63;2.58;;;;;;;11.83;83.29;100263.47;5116358;28;20498;-57
2022/07/10 04:25:44;;;;;;;9.02;2.95;;;;;;;11.76;83.20;100255.50;5115228;28;20031;-57
2022/07/10 04:28:10;;;;;;;9.95;2.45;;;;;;;11.85;83.24;100270.25;5122937;28;20027;-57
2022/07/10 04:30:35;;;;;;;7.72;2.75;;;;;;;11.85;83.27;100266.75;5117989;28;20027;-57
2022/07/10 04:33:01;;;;;;;13.23;3.10;;;;;;;11.98;82.69;100266.63;5119037;28;20023;-57
2022/07/10 04:35:27;;;;;;;8.98;2.65;;;;;;;11.98;82.69;100265.78;5120941;28;20027;-57
2022/07/10 04:37:53;;;;;;;7.57;2.95;;;;;;;12.13;82.09;100268.94;5116860;28;20023;-57
2022/07/10 04:40:18;;;;;;;10.10;2.75;;;;;;;12.04;82.07;100265.72;5121097;27;20363;-57
2022/07/10 04:42:44;;;;;;;13.30;2.85;;;;;;;12.19;81.73;100269.88;5125865;27;20031;-57
2022/07/10 04:45:10;;;;;;;11.18;2.70;;;;;;;12.15;81.72;100263.31;5118965;27;20019;-57
2022/07/10 04:47:35;;;;;;;9.10;2.63;;;;;;;12.27;81.59;100253.44;5118363;27;20030;-57
2022/07/10 04:50:01;;;;;;;10.48;2.75;;;;;;;12.41;81.20;100257.56;5120028;27;20055;-57
2022/07/10 04:52:26;;;;;;;12.98;2.70;;;;;;;12.50;80.22;100258.06;5096684;28;20119;-57
2022/07/10 04:54:51;;;;;;;6.30;2.25;;;;;;;12.86;78.63;100258.97;5120952;27;20016;-57
2022/07/10 04:57:17;;;;;;;8.32;2.25;;;;;;;12.69;78.98;100259.63;5100494;27;20350;-57
2022/07/10 04:59:42;;;;;;;8.15;2.80;;;;;;;12.86;79.25;100262.47;5099305;27;20024;-56
2022/07/10 05:02:08;;;;;;;7.60;2.97;;;;;;;13.13;77.53;100262.03;5112993;27;20417;-57
2022/07/10 05:04:33;;;;;;;7.10;2.40;;;;;;;13.19;77.08;100265.63;5117528;27;20031;-57
2022/07/10 05:06:59;;;;;;;11.15;2.38;;;;;;;13.51;76.47;100264.25;5105516;27;20019;-57
2022/07/10 05:09:24;;;;;;;7.82;2.40;;;;;;;13.65;75.52;100263.97;5119302;27;20022;-57
2022/07/10 05:11:49;;;;;;;9.13;2.13;;;;;;;14.23;72.60;100265.69;5117441;27;20016;-57
2022/07/10 05:14:16;;;;;;;10.07;2.50;;;;;;;14.01;73.80;100274.44;5120646;27;20026;-58
2022/07/10 05:16:41;;;;;;;9.95;2.33;;;;;;;14.08;73.68;100278.84;5116269;27;20023;-57
2022/07/10 05:19:07;;;;;;;7.65;2.72;;;;;;;14.03;73.17;100282.28;5122138;27;20065;-57
2022/07/10 05:21:32;;;;;;;9.95;2.25;;;;;;;14.25;72.42;100279.72;5120085;27;20030;-57
2022/07/10 05:23:58;;;;;;;13.80;2.58;;;;;;;14.46;71.65;100279.03;5119076;27;20023;-57
2022/07/10 05:26:23;;;;;;;8.32;2.28;;;;;;;14.19;73.10;100278.00;5117291;27;20481;-57
2022/07/10 05:28:49;;;;;;;6.13;2.25;;;;;;;15.04;71.22;100284.34;5107418;28;20031;-57
2022/07/10 05:31:14;;;;;;;9.75;2.30;;;;;;;15.30;69.02;100286.38;5122536;27;20433;-57
2022/07/10 05:33:40;;;;;;;8.75;2.22;;;;;;;16.00;66.70;100286.81;5121331;27;20064;-57
2022/07/10 05:36:06;;;;;;;8.90;2.25;;;;;;;16.49;64.85;100281.34;5123197;27;20023;-57
2022/07/10 05:38:32;;;;;;;7.10;2.20;;;;;;;16.46;63.46;100281.88;5109614;27;20503;-56
2022/07/10 05:40:57;;;;;;;10.10;2.33;;;;;;;18.04;59.61;100284.88;5122181;27;20023;-57
2022/07/10 05:43:23;;;;;;;12.57;2.65;;;;;;;21.53;49.41;100284.50;5121203;27;20227;-57
2022/07/10 05:45:48;;;;;;;13.57;2.20;;;;;;;20.57;50.61;100284.25;5111545;27;20392;-57
2022/07/10 05:48:14;;;;;;;12.00;2.45;;;;;;;18.29;57.05;100292.25;5099955;27;20499;-57
2022/07/10 05:50:39;;;;;;;8.27;2.30;;;;;;;19.27;53.76;100284.19;5099994;27;20480;-57
2022/07/10 05:53:04;;;;;;;7.95;2.72;;;;;;;16.56;61.57;100276.56;5100640;28;20465;-57
2022/07/10 05:55:30;;;;;;;10.13;2.75;;;;;;;19.25;55.38;100286.41;5120842;27;20016;-57
2022/07/10 05:57:55;;;;;;;10.60;2.35;;;;;;;20.15;50.81;100282.84;5122808;27;20031;-57
2022/07/10 06:00:21;;;;;;;9.88;2.25;;;;;;;18.64;56.04;100281.75;5119432;27;20028;-56
2022/07/10 06:02:46;;;;;;;8.98;2.10;;;;;;;18.59;55.81;100281.75;5118292;27;20108;-57
2022/07/10 06:05:12;;;;;;;9.50;2.50;;;;;;;17.89;58.44;100276.69;5118035;27;20043;-57
2022/07/10 06:07:37;;;;;;;10.45;2.42;;;;;;;17.34;59.08;100276.09;5115576;27;20802;-57
2022/07/10 06:10:03;;;;;;;8.50;2.60;;;;;;;18.78;56.45;100271.22;5117231;27;20059;-57
2022/07/10 06:12:29;;;;;;;10.18;2.60;;;;;;;19.37;53.51;100279.56;5098546;27;20025;-57
2022/07/10 06:14:54;;;;;;;11.23;2.70;;;;;;;20.18;51.88;100279.56;5117652;27;20088;-56
2022/07/10 06:17:20;;;;;;;10.55;2.60;;;;;;;19.59;51.69;100281.13;5123176;27;20031;-57
2022/07/10 06:19:45;;;;;;;5.70;2.10;;;;;;;18.86;55.19;100284.22;5122360;27;20473;-57
2022/07/10 06:24:54;;;;;;;8.68;2.42;;;;;;;16.99;60.02;100296.44;5118324;27;20092;-56
2022/07/10 06:27:20;;;;;;;8.57;2.90;;;;;;;16.81;61.29;100288.72;5115490;27;20023;-57
2022/07/10 06:29:46;;;;;;;8.95;2.80;;;;;;;16.66;60.29;100285.84;5099638;27;20054;-56
2022/07/10 06:32:11;;;;;;;8.82;2.70;;;;;;;15.87;63.77;100289.88;5122188;27;20406;-57
2022/07/10 06:34:37;;;;;;;14.65;3.03;;;;;;;16.47;61.71;100288.91;5118412;27;20250;-57
2022/07/10 06:37:02;;;;;;;9.60;2.97;;;;;;;18.21;56.17;100290.06;5121367;27;20035;-57
2022/07/10 06:39:29;;;;;;;7.80;2.55;;;;;;;17.60;55.65;100295.25;5116666;27;20232;-57
2022/07/10 06:41:54;;;;;;;6.05;2.33;;;;;;;17.42;57.73;100283.75;5097269;27;20051;-57
2022/07/10 06:44:21;;;;;;;11.55;2.97;;;;;;;18.08;56.73;100290.59;5101276;28;20024;-57
2022/07/10 06:47:55;;;;;;;12.60;2.53;;;;;;;19.06;52.79;100292.38;5111361;27;20035;-57
2022/07/10 06:49:32;;;;;;;9.48;2.22;;;;;;;17.52;58.43;100293.00;5116334;27;20035;-57
2022/07/10 06:51:57;;;;;;;12.07;2.30;;;;;;;17.36;57.83;100289.41;5097528;27;20447;-57
2022/07/10 06:54:23;;;;;;;8.68;2.40;;;;;;;17.53;58.63;100291.94;5120714;27;20377;-57
2022/07/10 06:56:48;;;;;;;6.65;2.10;;;;;;;19.08;55.26;100282.06;5077867;28;20043;-57
2022/07/10 06:59:14;;;;;;;7.03;2.47;;;;;;;20.77;49.27;100289.56;5121009;27;20027;-57
2022/07/10 07:01:39;;;;;;;10.02;2.28;;;;;;;21.98;47.39;100290.50;5116239;27;20030;-56
2022/07/10 07:04:04;;;;;;;6.53;2.28;;;;;;;22.57;45.06;100286.44;5120987;27;20020;-57
2022/07/10 07:06:30;;;;;;;10.27;2.35;;;;;;;21.47;46.52;100291.13;5113884;27;20019;-57
2022/07/10 07:08:55;;;;;;;11.30;2.25;;;;;;;20.00;49.25;100287.25;5120124;27;20024;-57
2022/07/10 07:11:21;;;;;;;6.38;2.10;;;;;;;21.70;44.80;100287.56;5114536;27;20032;-57
2022/07/10 07:13:46;;;;;;;11.25;2.92;;;;;;;19.92;47.63;100285.13;5109935;27;20027;-57
2022/07/10 07:16:17;;;;;;;14.52;2.50;;;;;;;19.23;50.46;100283.94;5102187;27;20104;-57
2022/07/10 07:18:49;;;;;;;8.98;2.60;;;;;;;17.57;55.82;100295.75;5117679;27;20051;-57
2022/07/10 07:23:58;;;;;;;11.68;2.67;;;;;;;17.14;58.30;100286.81;5114765;27;20066;-57
2022/07/10 07:26:24;;;;;;;16.08;3.20;;;;;;;16.38;60.73;100290.47;5119880;27;20020;-57
2022/07/10 07:28:49;;;;;;;11.45;2.90;;;;;;;16.38;60.53;100298.56;5118909;28;20023;-57
2022/07/10 07:31:17;;;;;;;13.77;3.25;;;;;;;16.40;61.33;100293.72;5103422;28;20031;-56
2022/07/10 07:33:43;;;;;;;8.20;2.80;;;;;;;16.15;61.67;100295.09;5100047;28;20151;-56
2022/07/10 07:36:08;;;;;;;11.48;2.97;;;;;;;15.98;63.03;100301.66;5118964;28;20499;-57
2022/07/10 07:38:34;;;;;;;10.63;2.70;;;;;;;18.90;54.56;100301.63;5095571;28;20509;-57
2022/07/10 07:40:59;;;;;;;11.20;2.80;;;;;;;20.82;47.24;100296.88;5119123;28;20088;-56
2022/07/10 07:43:24;;;;;;;9.75;2.40;;;;;;;21.68;45.88;100297.97;5122896;28;20052;-57
2022/07/10 07:45:50;;;;;;;9.98;3.05;;;;;;;20.40;46.49;100299.03;5117456;28;20080;-56
2022/07/10 07:48:16;;;;;;;7.95;2.30;;;;;;;21.07;46.10;100298.56;5118371;28;20040;-56
2022/07/10 07:50:41;;;;;;;7.53;2.17;;;;;;;20.07;48.37;100294.28;5114550;28;20481;-57
2022/07/10 07:53:06;;;;;;;14.32;2.72;;;;;;;18.78;51.25;100293.75;5120369;28;20508;-57
2022/07/10 07:55:33;;;;;;;15.93;2.97;;;;;;;17.77;54.04;100304.00;5091110;28;20023;-56
2022/07/10 07:57:58;;;;;;;8.20;2.30;;;;;;;17.16;55.11;100303.63;5097525;28;20027;-57
2022/07/10 08:00:25;;;;;;;7.72;2.65;;;;;;;16.89;56.29;100301.78;5120108;28;20419;-57
2022/07/10 08:02:51;;;;;;;11.05;2.47;;;;;;;17.03;57.41;100302.97;5096370;28;20521;-56
2022/07/10 08:05:16;;;;;;;9.02;2.40;;;;;;;17.31;57.57;100292.88;5114105;28;20023;-54
2022/07/10 08:07:43;;;;;;;8.43;2.50;;;;;;;18.22;54.12;100293.59;5115009;28;20032;-56
2022/07/10 08:10:10;;;;;;;12.88;2.70;;;;;;;19.83;50.32;100294.97;5103011;28;20026;-57
2022/07/10 08:12:36;;;;;;;7.75;2.83;;;;;;;18.09;54.96;100292.22;5118434;28;20019;-57
2022/07/10 08:15:01;;;;;;;9.65;2.50;;;;;;;17.86;54.43;100298.91;5117488;27;20047;-56
2022/07/10 08:17:27;;;;;;;12.50;2.67;;;;;;;17.56;54.69;100308.47;5119732;27;20097;-57
2022/07/10 08:19:52;;;;;;;9.57;2.75;;;;;;;18.01;53.98;100304.41;5119140;27;20495;-57
2022/07/10 08:22:18;;;;;;;8.00;2.85;;;;;;;17.98;53.41;100295.97;5123415;27;20485;-56
2022/07/10 08:24:43;;;;;;;10.73;2.70;;;;;;;17.41;55.20;100292.13;5125267;27;20427;-56
2022/07/10 08:27:09;;;;;;;7.53;2.80;;;;;;;17.28;55.20;100298.84;5124690;27;20022;-56
2022/07/10 08:29:34;;;;;;;8.77;3.08;;;;;;;17.55;55.00;100296.03;5117285;27;20427;-56
2022/07/10 08:32:00;;;;;;;10.55;2.67;;;;;;;19.21;50.80;100296.16;5108471;27;20027;-56
2022/07/10 08:34:27;;;;;;;11.27;3.30;;;;;;;17.86;52.54;100299.72;5089161;27;20024;-56
2022/07/10 08:36:53;;;;;;;12.70;3.45;;;;;;;20.40;47.40;100296.31;5107484;27;20061;-57
2022/07/10 08:39:20;;;;;;;8.20;3.47;;;;;;;19.70;48.43;100287.41;5116328;27;20550;-56
2022/07/10 08:41:47;;;;;;;11.80;3.85;;;;;;;19.23;49.70;100289.38;5123501;27;20027;-57
2022/07/10 08:44:12;;;;;;;12.55;3.63;;;;;;;19.10;50.65;100289.94;5085834;28;20019;-56
2022/07/10 08:46:37;;;;;;;7.80;3.42;;;;;;;18.30;51.95;100287.69;5090392;27;20034;-56
2022/07/10 08:49:05;;;;;;;12.85;4.00;;;;;;;18.45;51.12;100281.47;5101776;28;20068;-55
2022/07/10 08:51:37;;;;;;;11.95;3.90;;;;;;;18.40;50.53;100276.03;5121568;27;20015;-56
2022/07/10 08:54:03;;;;;;;7.43;3.45;;;;;;;18.42;50.56;100274.69;5097184;27;20494;-56
2022/07/10 08:56:28;;;;;;;6.07;3.17;;;;;;;18.24;51.19;100277.88;5083248;28;20264;-56
2022/07/10 08:58:54;;;;;;;9.18;3.40;;;;;;;18.24;50.38;100270.53;5085126;28;20054;-56
2022/07/10 09:01:22;;;;;;;12.75;3.72;;;;;;;17.95;51.53;100274.81;5103562;27;20024;-56
2022/07/10 09:03:49;;;;;;;11.93;4.03;;;;;;;17.56;53.03;100289.50;5096515;28;20035;-57
2022/07/10 09:06:15;;;;;;;12.82;4.43;;;;;;;17.39;54.79;100283.44;5096980;28;20024;-56
2022/07/10 09:08:57;;;;;;;13.05;4.50;;;;;;;17.33;55.24;100284.50;5117757;27;20023;-56
2022/07/10 09:11:23;;;;;;;15.23;4.00;;;;;;;17.59;54.13;100270.00;5106540;27;20027;-56
2022/07/10 09:13:52;;;;;;;13.63;4.30;;;;;;;17.53;54.77;100278.41;5118317;27;20023;-57
2022/07/10 09:16:28;;;;;;;8.50;3.88;;;;;;;18.10;52.99;100272.16;5115925;27;20023;-57
2022/07/10 09:18:54;;;;;;;9.23;3.70;;;;;;;19.51;49.60;100278.97;5116559;27;20081;-56
2022/07/10 09:21:19;;;;;;;10.18;3.58;;;;;;;21.69;45.05;100274.22;5122274;27;20694;-57
2022/07/10 09:23:45;;;;;;;9.70;3.17;;;;;;;21.19;44.63;100274.47;5117401;27;20071;-56
2022/07/10 09:26:10;;;;;;;7.00;2.92;;;;;;;20.63;46.01;100278.47;5105063;28;20031;-56
2022/07/10 09:28:36;;;;;;;9.32;3.17;;;;;;;19.79;47.47;100266.66;5122768;27;20015;-57
2022/07/10 09:31:01;;;;;;;6.70;2.88;;;;;;;20.16;47.25;100262.69;5117191;27;20023;-56
2022/07/10 09:33:29;;;;;;;8.07;2.80;;;;;;;20.16;47.59;100263.50;5121308;27;20019;-56
2022/07/10 09:36:14;;;;;;;10.75;2.70;;;;;;;21.84;44.12;100246.75;5118999;27;20173;-56
2022/07/10 09:38:39;;;;;;;7.57;2.50;;;;;;;20.43;46.95;100262.25;5114555;27;20112;-57
2022/07/10 09:41:18;;;;;;;12.50;3.97;;;;;;;22.18;43.53;100249.28;5121130;27;20039;-57
2022/07/10 09:43:47;;;;;;;7.80;2.92;;;;;;;22.31;43.36;100242.28;5125056;27;20299;-57
2022/07/10 09:46:14;;;;;;;8.00;2.63;;;;;;;20.56;45.29;100249.94;5100948;27;20405;-56
2022/07/10 09:48:40;;;;;;;5.97;2.53;;;;;;;20.80;45.62;100256.28;5117499;27;20057;-57
2022/07/10 09:51:10;;;;;;;6.38;2.63;;;;;;;21.27;44.92;100248.50;5123257;27;20023;-57
2022/07/10 09:53:44;;;;;;;5.68;2.67;;;;;;;21.17;46.03;100249.41;5109337;27;20046;-56
2022/07/10 09:56:11;;;;;;;8.38;2.50;;;;;;;20.64;47.10;100257.50;5118902;27;20065;-56
2022/07/10 09:58:37;;;;;;;10.98;2.47;;;;;;;20.09;48.60;100251.28;5110431;27;20038;-56
2022/07/10 10:01:07;;;;;;;7.22;2.50;;;;;;;19.64;49.30;100250.38;5114868;27;20094;-56
2022/07/10 10:03:36;;;;;;;8.88;2.92;;;;;;;19.95;49.26;100256.56;5096324;28;20039;-56
2022/07/10 10:06:14;;;;;;;7.45;2.60;;;;;;;19.51;50.87;100252.59;5105660;28;20036;-56
2022/07/10 10:09:01;;;;;;;6.20;2.70;;;;;;;18.94;51.72;100251.88;5110922;27;20032;-57
2022/07/10 10:11:27;;;;;;;8.20;2.50;;;;;;;19.36;52.01;100258.09;5075517;27;20073;-57
2022/07/10 10:13:52;;;;;;;7.72;3.03;;;;;;;19.27;51.50;100257.00;5117416;27;20062;-57
2022/07/10 10:16:21;;;;;;;7.07;2.75;;;;;;;19.44;50.59;100262.94;5114751;27;20031;-57
2022/07/10 10:21:30;;;;;;;7.90;2.80;;;;;;;20.01;50.08;100266.31;5107275;27;20042;-56
2022/07/10 10:23:56;;;;;;;7.72;3.00;;;;;;;19.01;52.64;100265.22;5117583;27;20020;-56
2022/07/10 10:26:22;;;;;;;8.07;2.75;;;;;;;19.00;52.77;100260.06;5115000;27;20073;-56
2022/07/10 10:28:49;;;;;;;7.68;2.70;;;;;;;19.48;51.84;100266.75;5120412;27;20053;-58
2022/07/10 10:31:15;;;;;;;13.52;2.85;;;;;;;19.20;52.89;100268.19;5115079;27;20537;-58
2022/07/10 10:33:42;;;;;;;8.15;2.88;;;;;;;18.98;53.06;100270.38;5100201;27;20100;-57
2022/07/10 10:36:07;;;;;;;7.88;2.85;;;;;;;18.66;54.04;100274.16;5117657;27;20030;-57
2022/07/10 10:38:46;;;;;;;7.40;2.75;;;;;;;18.89;53.81;100272.81;5117276;27;20027;-57
2022/07/10 10:41:27;;;;;;;10.80;2.90;;;;;;;18.83;53.79;100268.50;5110307;27;20093;-57
2022/07/10 10:44:15;;;;;;;6.10;2.90;;;;;;;19.17;53.22;100266.84;5114878;27;20076;-57
2022/07/10 10:46:50;;;;;;;9.68;3.92;;;;;;;18.92;54.76;100272.25;5120639;27;20105;-57
2022/07/10 10:49:16;;;;;;;11.35;3.70;;;;;;;18.89;54.41;100267.38;5117327;27;20023;-58
2022/07/10 10:52:01;;;;;;;8.88;3.10;;;;;;;19.36;54.08;100267.06;5123600;27;20030;-55
2022/07/10 10:54:27;;;;;;;10.23;3.17;;;;;;;19.78;52.25;100260.44;5117286;27;20027;-56
2022/07/10 10:57:12;;;;;;;7.80;2.70;;;;;;;19.12;53.80;100250.53;5115641;27;20081;-56
2022/07/10 10:59:51;;;;;;;9.10;2.95;;;;;;;20.16;50.81;100255.34;5119277;27;20019;-55
2022/07/10 11:02:26;;;;;;;7.15;2.83;;;;;;;20.28;50.36;100254.19;5107594;27;20051;-58
2022/07/10 11:05:17;;;;;;;7.07;3.10;;;;;;;20.04;51.73;100244.81;5117537;27;20373;-55
2022/07/10 11:07:58;;;;;;;6.72;3.22;;;;;;;20.28;49.93;100249.56;5071660;27;20045;-56
2022/07/10 11:10:27;;;;;;;7.53;3.40;;;;;;;19.55;51.75;100242.81;5119975;27;20053;-57
2022/07/10 11:13:00;;;;;;;9.63;3.50;;;;;;;19.48;52.97;100245.00;5110124;27;20034;-56
2022/07/10 11:15:26;;;;;;;5.05;3.35;;;;;;;19.95;51.48;100242.94;5116691;27;20110;-55
2022/07/10 11:17:52;;;;;;;9.27;4.20;;;;;;;19.69;52.87;100244.97;5116569;27;20457;-55
2022/07/10 11:20:18;;;;;;;8.00;3.50;;;;;;;19.60;52.36;100248.22;5119901;27;20384;-57
2022/07/10 11:22:49;;;;;;;7.85;3.40;;;;;;;19.06;53.23;100245.38;5101154;27;20091;-57
2022/07/10 11:25:30;;;;;;;9.43;3.45;;;;;;;19.13;53.94;100240.47;5091825;27;20032;-56
2022/07/10 11:28:12;;;;;;;7.95;3.63;;;;;;;18.45;55.62;100241.56;5115094;27;20043;-55
2022/07/10 11:30:44;;;;;;;7.78;3.85;;;;;;;18.56;56.30;100253.22;5096750;28;20023;-57
2022/07/10 11:33:09;;;;;;;5.68;3.80;;;;;;;18.71;55.64;100244.28;5112212;28;20109;-57